sensor_id;sensor_type;location;lat;lon;timestamp;temperature;humidity
14993;DHT22;7592;51.088;13.732;2022-08-04T00:02:24;23.70;96.30
14993;DHT22;7592;51.088;13.732;2022-08-04T00:07:41;23.70;97.50
14993;DHT22;7592;51.088;13.732;2022-08-04T00:12:40;23.60;97.90
14993;DHT22;7592;51.088;13.732;2022-08-04T00:17:39;23.60;99.60
14993;DHT22;7592;51.088;13.732;2022-08-04T00:22:34;23.50;99.90
14993;DHT22;7592;51.088;13.732;2022-08-04T00:27:28;23.40;99.90
14993;DHT22;7592;51.088;13.732;2022-08-04T00:32:21;23.40;99.90
14993;DHT22;7592;51.088;13.732;2022-08-04T00:37:26;23.40;99.90
14993;DHT22;7592;51.088;13.732;2022-08-04T01:02:36;22.80;99.90
14993;DHT22;7592;51.088;13.732;2022-08-04T01:07:42;22.80;99.90
14993;DHT22;7592;51.088;13.732;2022-08-04T01:18:08;22.60;99.90
14993;DHT22;7592;51.088;13.732;2022-08-04T01:33:34;22.40;99.90
14993;DHT22;7592;51.088;13.732;2022-08-04T01:38:47;22.30;99.90
14993;DHT22;7592;51.088;13.732;2022-08-04T01:43:42;22.20;99.90
14993;DHT22;7592;51.088;13.732;2022-08-04T01:48:37;22.10;99.90
14993;DHT22;7592;51.088;13.732;2022-08-04T01:53:33;22.00;99.90
14993;DHT22;7592;51.088;13.732;2022-08-04T01:58:28;21.90;99.90
14993;DHT22;7592;51.088;13.732;2022-08-04T02:03:20;21.90;99.90
14993;DHT22;7592;51.088;13.732;2022-08-04T02:13:54;21.80;99.90
14993;DHT22;7592;51.088;13.732;2022-08-04T02:24:08;21.70;99.90
14993;DHT22;7592;51.088;13.732;2022-08-04T02:34:50;21.50;99.90
14993;DHT22;7592;51.088;13.732;2022-08-04T02:39:44;21.40;99.90
14993;DHT22;7592;51.088;13.732;2022-08-04T02:44:40;21.40;99.90
14993;DHT22;7592;51.088;13.732;2022-08-04T02:49:37;21.30;99.90
14993;DHT22;7592;51.088;13.732;2022-08-04T02:54:34;21.30;99.90
14993;DHT22;7592;51.088;13.732;2022-08-04T03:05:02;21.20;99.90
14993;DHT22;7592;51.088;13.732;2022-08-04T03:10:29;21.20;99.90
14993;DHT22;7592;51.088;13.732;2022-08-04T03:15:59;21.20;99.90
14993;DHT22;7592;51.088;13.732;2022-08-04T03:37:00;21.00;99.90
14993;DHT22;7592;51.088;13.732;2022-08-04T03:42:19;21.00;99.90
14993;DHT22;7592;51.088;13.732;2022-08-04T04:04:08;21.10;99.90
14993;DHT22;7592;51.088;13.732;2022-08-04T04:30:07;21.90;99.90
14993;DHT22;7592;51.088;13.732;2022-08-04T04:41:02;25.30;99.90
14993;DHT22;7592;51.088;13.732;2022-08-04T04:51:43;32.50;92.70
14993;DHT22;7592;51.088;13.732;2022-08-04T04:56:59;34.40;82.10
14993;DHT22;7592;51.088;13.732;2022-08-04T05:17:49;38.60;58.40
14993;DHT22;7592;51.088;13.732;2022-08-04T05:22:58;40.10;56.40
14993;DHT22;7592;51.088;13.732;2022-08-04T05:28:05;39.00;56.40
14993;DHT22;7592;51.088;13.732;2022-08-04T05:33:03;41.00;53.90
14993;DHT22;7592;51.088;13.732;2022-08-04T05:37:57;42.20;50.10
14993;DHT22;7592;51.088;13.732;2022-08-04T05:42:53;43.90;48.70
14993;DHT22;7592;51.088;13.732;2022-08-04T05:47:46;44.90;45.00
14993;DHT22;7592;51.088;13.732;2022-08-04T05:52:39;45.30;43.80
14993;DHT22;7592;51.088;13.732;2022-08-04T05:57:33;45.70;43.20
14993;DHT22;7592;51.088;13.732;2022-08-04T06:02:27;46.30;41.60
14993;DHT22;7592;51.088;13.732;2022-08-04T06:07:20;46.10;41.20
14993;DHT22;7592;51.088;13.732;2022-08-04T06:12:37;44.90;42.00
14993;DHT22;7592;51.088;13.732;2022-08-04T06:17:35;44.70;41.80
14993;DHT22;7592;51.088;13.732;2022-08-04T06:22:53;43.90;42.50
14993;DHT22;7592;51.088;13.732;2022-08-04T06:27:46;44.30;42.00
14993;DHT22;7592;51.088;13.732;2022-08-04T06:32:41;42.50;43.50
14993;DHT22;7592;51.088;13.732;2022-08-04T06:37:40;42.90;43.10
14993;DHT22;7592;51.088;13.732;2022-08-04T06:42:35;41.80;44.00
14993;DHT22;7592;51.088;13.732;2022-08-04T06:47:29;43.70;42.40
14993;DHT22;7592;51.088;13.732;2022-08-04T06:52:22;45.60;41.40
14993;DHT22;7592;51.088;13.732;2022-08-04T06:57:17;45.60;40.70
14993;DHT22;7592;51.088;13.732;2022-08-04T07:02:17;45.40;40.60
14993;DHT22;7592;51.088;13.732;2022-08-04T07:07:11;46.60;40.40
14993;DHT22;7592;51.088;13.732;2022-08-04T07:12:06;47.40;39.60
14993;DHT22;7592;51.088;13.732;2022-08-04T07:16:58;47.60;38.90
14993;DHT22;7592;51.088;13.732;2022-08-04T07:21:51;46.30;40.00
14993;DHT22;7592;51.088;13.732;2022-08-04T07:27:04;46.10;39.80
14993;DHT22;7592;51.088;13.732;2022-08-04T07:31:58;45.70;40.40
14993;DHT22;7592;51.088;13.732;2022-08-04T07:36:52;46.40;39.90
14993;DHT22;7592;51.088;13.732;2022-08-04T07:41:47;46.60;39.50
14993;DHT22;7592;51.088;13.732;2022-08-04T07:46:44;45.60;40.00
14993;DHT22;7592;51.088;13.732;2022-08-04T07:51:37;45.20;40.60
14993;DHT22;7592;51.088;13.732;2022-08-04T07:56:31;45.30;40.50
14993;DHT22;7592;51.088;13.732;2022-08-04T08:01:24;46.10;40.00
14993;DHT22;7592;51.088;13.732;2022-08-04T08:06:16;45.40;40.40
14993;DHT22;7592;51.088;13.732;2022-08-04T08:11:25;46.30;40.00
14993;DHT22;7592;51.088;13.732;2022-08-04T08:16:37;47.00;39.20
14993;DHT22;7592;51.088;13.732;2022-08-04T08:21:30;47.40;38.70
14993;DHT22;7592;51.088;13.732;2022-08-04T08:26:23;46.80;38.90
14993;DHT22;7592;51.088;13.732;2022-08-04T08:31:15;47.90;37.80
14993;DHT22;7592;51.088;13.732;2022-08-04T08:41:53;48.20;37.40
14993;DHT22;7592;51.088;13.732;2022-08-04T08:58:06;48.80;36.30
14993;DHT22;7592;51.088;13.732;2022-08-04T09:04:07;49.60;35.70
14993;DHT22;7592;51.088;13.732;2022-08-04T09:08:54;50.10;35.40
14993;DHT22;7592;51.088;13.732;2022-08-04T09:14:04;50.50;34.70
14993;DHT22;7592;51.088;13.732;2022-08-04T09:30:04;52.80;33.10
14993;DHT22;7592;51.088;13.732;2022-08-04T09:35:03;53.40;32.20
14993;DHT22;7592;51.088;13.732;2022-08-04T09:45:32;55.40;30.40
14993;DHT22;7592;51.088;13.732;2022-08-04T09:50:37;55.60;30.00
14993;DHT22;7592;51.088;13.732;2022-08-04T10:00:50;56.80;29.50
14993;DHT22;7592;51.088;13.732;2022-08-04T10:11:02;56.90;29.10
14993;DHT22;7592;51.088;13.732;2022-08-04T10:21:51;54.70;30.00
14993;DHT22;7592;51.088;13.732;2022-08-04T10:27:40;54.80;30.00
14993;DHT22;7592;51.088;13.732;2022-08-04T10:32:41;53.70;30.20
14993;DHT22;7592;51.088;13.732;2022-08-04T10:53:28;49.90;31.70
14993;DHT22;7592;51.088;13.732;2022-08-04T10:58:25;47.60;33.00
14993;DHT22;7592;51.088;13.732;2022-08-04T11:04:03;47.10;33.80
14993;DHT22;7592;51.088;13.732;2022-08-04T11:08:58;49.00;32.20
14993;DHT22;7592;51.088;13.732;2022-08-04T11:14:02;49.90;32.00
14993;DHT22;7592;51.088;13.732;2022-08-04T11:25:07;51.40;31.10
14993;DHT22;7592;51.088;13.732;2022-08-04T11:30:07;50.00;31.60
14993;DHT22;7592;51.088;13.732;2022-08-04T11:35:06;47.40;33.00
14993;DHT22;7592;51.088;13.732;2022-08-04T11:40:08;47.00;33.40
14993;DHT22;7592;51.088;13.732;2022-08-04T11:45:17;45.20;34.80
14993;DHT22;7592;51.088;13.732;2022-08-04T11:50:19;43.50;36.20
14993;DHT22;7592;51.088;13.732;2022-08-04T11:55:14;42.30;37.40
14993;DHT22;7592;51.088;13.732;2022-08-04T12:00:10;41.30;38.00
14993;DHT22;7592;51.088;13.732;2022-08-04T12:05:06;40.70;39.00
14993;DHT22;7592;51.088;13.732;2022-08-04T12:20:56;40.60;39.10
14993;DHT22;7592;51.088;13.732;2022-08-04T12:25:53;40.00;39.80
14993;DHT22;7592;51.088;13.732;2022-08-04T12:30:51;39.40;40.30
14993;DHT22;7592;51.088;13.732;2022-08-04T12:36:18;39.10;40.70
14993;DHT22;7592;51.088;13.732;2022-08-04T12:41:18;38.80;41.30
14993;DHT22;7592;51.088;13.732;2022-08-04T12:46:25;38.50;41.50
14993;DHT22;7592;51.088;13.732;2022-08-04T12:51:18;38.60;41.30
14993;DHT22;7592;51.088;13.732;2022-08-04T12:56:32;38.60;41.20
14993;DHT22;7592;51.088;13.732;2022-08-04T13:01:25;38.60;41.10
14993;DHT22;7592;51.088;13.732;2022-08-04T13:06:38;38.00;41.60
14993;DHT22;7592;51.088;13.732;2022-08-04T13:11:38;37.80;42.30
14993;DHT22;7592;51.088;13.732;2022-08-04T13:16:34;37.30;42.70
14993;DHT22;7592;51.088;13.732;2022-08-04T13:21:29;37.00;42.90
14993;DHT22;7592;51.088;13.732;2022-08-04T13:31:48;37.30;43.30
14993;DHT22;7592;51.088;13.732;2022-08-04T13:36:45;37.70;42.40
14993;DHT22;7592;51.088;13.732;2022-08-04T13:41:44;37.50;42.60
14993;DHT22;7592;51.088;13.732;2022-08-04T13:47:14;37.50;42.50
14993;DHT22;7592;51.088;13.732;2022-08-04T13:52:10;37.30;42.80
14993;DHT22;7592;51.088;13.732;2022-08-04T13:57:07;37.40;42.60
14993;DHT22;7592;51.088;13.732;2022-08-04T14:02:07;37.30;42.80
14993;DHT22;7592;51.088;13.732;2022-08-04T14:07:02;37.40;42.90
14993;DHT22;7592;51.088;13.732;2022-08-04T14:12:05;37.30;42.70
14993;DHT22;7592;51.088;13.732;2022-08-04T14:17:24;37.10;43.20
14993;DHT22;7592;51.088;13.732;2022-08-04T14:27:16;37.00;43.30
14993;DHT22;7592;51.088;13.732;2022-08-04T14:32:09;37.00;43.20
14993;DHT22;7592;51.088;13.732;2022-08-04T14:37:07;36.70;43.00
14993;DHT22;7592;51.088;13.732;2022-08-04T14:42:09;36.40;43.60
14993;DHT22;7592;51.088;13.732;2022-08-04T14:47:01;36.50;43.50
14993;DHT22;7592;51.088;13.732;2022-08-04T14:51:56;36.70;43.30
14993;DHT22;7592;51.088;13.732;2022-08-04T14:56:55;36.70;43.10
14993;DHT22;7592;51.088;13.732;2022-08-04T15:01:49;36.60;43.30
14993;DHT22;7592;51.088;13.732;2022-08-04T15:06:52;36.70;43.40
14993;DHT22;7592;51.088;13.732;2022-08-04T15:12:25;36.80;43.10
14993;DHT22;7592;51.088;13.732;2022-08-04T15:17:17;36.80;43.10
14993;DHT22;7592;51.088;13.732;2022-08-04T15:22:21;36.90;42.70
14993;DHT22;7592;51.088;13.732;2022-08-04T15:27:13;36.60;42.60
14993;DHT22;7592;51.088;13.732;2022-08-04T15:32:07;36.30;43.00
14993;DHT22;7592;51.088;13.732;2022-08-04T15:37:02;36.30;43.00
14993;DHT22;7592;51.088;13.732;2022-08-04T15:42:22;36.40;43.40
14993;DHT22;7592;51.088;13.732;2022-08-04T15:47:15;36.30;43.40
14993;DHT22;7592;51.088;13.732;2022-08-04T15:52:09;36.20;43.60
14993;DHT22;7592;51.088;13.732;2022-08-04T15:57:05;36.10;43.90
14993;DHT22;7592;51.088;13.732;2022-08-04T16:07:20;35.90;44.10
14993;DHT22;7592;51.088;13.732;2022-08-04T16:12:52;35.70;44.20
14993;DHT22;7592;51.088;13.732;2022-08-04T16:17:46;35.70;44.10
14993;DHT22;7592;51.088;13.732;2022-08-04T16:22:39;35.60;44.40
14993;DHT22;7592;51.088;13.732;2022-08-04T16:27:36;35.50;44.60
14993;DHT22;7592;51.088;13.732;2022-08-04T16:32:38;35.50;44.80
14993;DHT22;7592;51.088;13.732;2022-08-04T16:37:36;35.30;44.90
14993;DHT22;7592;51.088;13.732;2022-08-04T16:52:47;34.80;45.30
14993;DHT22;7592;51.088;13.732;2022-08-04T16:57:39;34.60;45.70
14993;DHT22;7592;51.088;13.732;2022-08-04T17:02:32;34.50;45.80
14993;DHT22;7592;51.088;13.732;2022-08-04T17:07:25;34.50;45.90
14993;DHT22;7592;51.088;13.732;2022-08-04T17:12:17;34.30;46.20
14993;DHT22;7592;51.088;13.732;2022-08-04T17:17:10;34.20;46.10
14993;DHT22;7592;51.088;13.732;2022-08-04T17:22:05;34.10;46.40
14993;DHT22;7592;51.088;13.732;2022-08-04T17:27:11;33.90;46.90
14993;DHT22;7592;51.088;13.732;2022-08-04T17:32:23;33.80;47.20
14993;DHT22;7592;51.088;13.732;2022-08-04T17:37:17;33.80;47.20
14993;DHT22;7592;51.088;13.732;2022-08-04T17:42:32;33.70;47.30
14993;DHT22;7592;51.088;13.732;2022-08-04T17:47:24;33.70;47.20
14993;DHT22;7592;51.088;13.732;2022-08-04T17:52:30;33.70;47.40
14993;DHT22;7592;51.088;13.732;2022-08-04T17:57:36;33.50;47.60
14993;DHT22;7592;51.088;13.732;2022-08-04T18:02:40;33.50;47.70
14993;DHT22;7592;51.088;13.732;2022-08-04T18:07:52;33.30;48.20
14993;DHT22;7592;51.088;13.732;2022-08-04T18:13:08;33.20;48.30
14993;DHT22;7592;51.088;13.732;2022-08-04T18:18:34;33.10;48.50
14993;DHT22;7592;51.088;13.732;2022-08-04T18:23:29;32.90;48.80
14993;DHT22;7592;51.088;13.732;2022-08-04T18:28:23;32.90;49.00
14993;DHT22;7592;51.088;13.732;2022-08-04T18:33:19;32.70;49.20
14993;DHT22;7592;51.088;13.732;2022-08-04T18:38:31;32.60;49.50
14993;DHT22;7592;51.088;13.732;2022-08-04T18:43:24;32.30;49.80
14993;DHT22;7592;51.088;13.732;2022-08-04T18:48:36;32.20;50.20
14993;DHT22;7592;51.088;13.732;2022-08-04T18:53:32;32.10;50.40
14993;DHT22;7592;51.088;13.732;2022-08-04T18:58:26;31.80;50.60
14993;DHT22;7592;51.088;13.732;2022-08-04T19:03:19;31.70;50.70
14993;DHT22;7592;51.088;13.732;2022-08-04T19:08:14;31.50;51.00
14993;DHT22;7592;51.088;13.732;2022-08-04T19:13:27;31.40;51.30
14993;DHT22;7592;51.088;13.732;2022-08-04T19:18:25;31.20;51.80
14993;DHT22;7592;51.088;13.732;2022-08-04T19:23:19;31.00;52.30
14993;DHT22;7592;51.088;13.732;2022-08-04T19:28:33;30.90;52.40
14993;DHT22;7592;51.088;13.732;2022-08-04T19:33:27;30.70;52.60
14993;DHT22;7592;51.088;13.732;2022-08-04T19:38:39;30.70;52.80
14993;DHT22;7592;51.088;13.732;2022-08-04T19:43:32;30.60;53.00
14993;DHT22;7592;51.088;13.732;2022-08-04T19:48:24;30.40;53.00
14993;DHT22;7592;51.088;13.732;2022-08-04T19:53:24;30.30;53.20
14993;DHT22;7592;51.088;13.732;2022-08-04T19:58:28;30.30;53.40
14993;DHT22;7592;51.088;13.732;2022-08-04T20:03:21;30.10;53.70
14993;DHT22;7592;51.088;13.732;2022-08-04T20:08:33;30.00;53.70
14993;DHT22;7592;51.088;13.732;2022-08-04T20:13:26;29.90;54.00
14993;DHT22;7592;51.088;13.732;2022-08-04T20:18:30;29.80;54.10
14993;DHT22;7592;51.088;13.732;2022-08-04T20:23:27;29.70;54.30
14993;DHT22;7592;51.088;13.732;2022-08-04T20:28:41;29.70;54.20
14993;DHT22;7592;51.088;13.732;2022-08-04T20:33:36;29.60;54.40
14993;DHT22;7592;51.088;13.732;2022-08-04T20:38:28;29.50;54.50
14993;DHT22;7592;51.088;13.732;2022-08-04T20:43:25;29.30;54.60
14993;DHT22;7592;51.088;13.732;2022-08-04T20:48:26;29.20;55.20
14993;DHT22;7592;51.088;13.732;2022-08-04T20:53:19;29.10;55.40
14993;DHT22;7592;51.088;13.732;2022-08-04T20:58:24;29.00;55.70
14993;DHT22;7592;51.088;13.732;2022-08-04T21:03:19;29.00;55.60
14993;DHT22;7592;51.088;13.732;2022-08-04T21:08:29;28.90;55.80
14993;DHT22;7592;51.088;13.732;2022-08-04T21:13:24;28.80;56.70
14993;DHT22;7592;51.088;13.732;2022-08-04T23:16:36;25.90;69.60
14993;DHT22;7592;51.088;13.732;2022-08-04T23:21:33;25.90;70.30
14993;DHT22;7592;51.088;13.732;2022-08-04T23:26:37;25.80;70.70
14993;DHT22;7592;51.088;13.732;2022-08-04T23:31:32;25.70;71.50
14993;DHT22;7592;51.088;13.732;2022-08-04T23:36:32;25.60;71.60
14993;DHT22;7592;51.088;13.732;2022-08-04T23:41:24;25.50;72.40
14993;DHT22;7592;51.088;13.732;2022-08-04T23:46:36;25.40;73.50
14993;DHT22;7592;51.088;13.732;2022-08-04T23:51:28;25.30;73.70
14993;DHT22;7592;51.088;13.732;2022-08-04T23:56:21;25.20;74.00
